N360BG KSAN-KSJC
Flight info
| Callsign | N360BG |
|---|---|
| Flight time | 0h 56m |
| Altitude | 40000 |
| Route | PADRZ2 IKAYE TESEA SCTRR TROXX SILCN6 |
| Aircraft | CL60/M-SBDE1E2E3FGHIJ4J5J7M3RWXYZ/LB1V1D1 |
Departure
| Time | 2026-05-05 04:31 |
|---|---|
| Airport | San Diego International Airport (KSAN) |
Arrival
| Time | 2026-05-05 05:27 |
|---|---|
| Airport | Norman Y. Mineta San Jose International Airport (KSJC) |
| Time | Latitude | Longitude | Altitude | Speed | Heading |
|---|---|---|---|---|---|
| 2026-05-05 04:09 | 32.73377 | -117.17982 | 23 ft | 0 kts | 160° |
| 2026-05-05 04:28 | 32.73371 | -117.17978 | 23 ft | 2 kts | 136° |
| 2026-05-05 04:28 | 32.73343 | -117.17957 | 23 ft | 7 kts | 181° |
| 2026-05-05 04:29 | 32.73277 | -117.17978 | 22 ft | 11 kts | 196° |
| 2026-05-05 04:29 | 32.73218 | -117.17923 | 22 ft | 14 kts | 104° |
| 2026-05-05 04:29 | 32.73188 | -117.17793 | 23 ft | 17 kts | 106° |
| 2026-05-05 04:29 | 32.73151 | -117.17647 | 25 ft | 19 kts | 107° |
| 2026-05-05 04:30 | 32.73063 | -117.17529 | 26 ft | 18 kts | 165° |
| 2026-05-05 04:30 | 32.73027 | -117.17618 | 25 ft | 16 kts | 284° |
| 2026-05-05 04:30 | 32.73131 | -117.18053 | 21 ft | 106 kts | 283° |
| 2026-05-05 04:30 | 32.73400 | -117.19204 | 346 ft | 169 kts | 285° |
| 2026-05-05 04:31 | 32.73828 | -117.20583 | 1183 ft | 194 kts | 297° |
| 2026-05-05 04:31 | 32.74572 | -117.22011 | 2015 ft | 219 kts | 301° |
| 2026-05-05 04:31 | 32.75452 | -117.23631 | 2861 ft | 249 kts | 301° |
| 2026-05-05 04:31 | 32.76415 | -117.25410 | 3975 ft | 265 kts | 301° |
| 2026-05-05 04:32 | 32.77381 | -117.27196 | 5636 ft | 265 kts | 301° |
| 2026-05-05 04:32 | 32.78342 | -117.28976 | 7258 ft | 266 kts | 300° |
| 2026-05-05 04:32 | 32.79328 | -117.30808 | 8777 ft | 269 kts | 300° |
| 2026-05-05 04:32 | 32.80413 | -117.32602 | 10181 ft | 276 kts | 304° |
| 2026-05-05 04:33 | 32.81583 | -117.34408 | 11477 ft | 284 kts | 304° |
| 2026-05-05 04:33 | 32.82787 | -117.36269 | 12736 ft | 292 kts | 303° |
| 2026-05-05 04:33 | 32.84062 | -117.38251 | 13385 ft | 319 kts | 303° |
| 2026-05-05 04:33 | 32.85464 | -117.40431 | 14079 ft | 341 kts | 304° |
| 2026-05-05 04:34 | 32.86948 | -117.42733 | 14688 ft | 358 kts | 304° |
| 2026-05-05 04:34 | 32.88450 | -117.45060 | 14926 ft | 358 kts | 304° |
| 2026-05-05 04:34 | 32.89980 | -117.47430 | 14978 ft | 365 kts | 304° |
| 2026-05-05 04:34 | 32.91542 | -117.49858 | 15809 ft | 377 kts | 304° |
| 2026-05-05 04:35 | 32.93135 | -117.52327 | 17187 ft | 372 kts | 304° |
| 2026-05-05 04:35 | 32.94681 | -117.54730 | 18389 ft | 371 kts | 303° |
| 2026-05-05 04:35 | 32.96254 | -117.57179 | 19450 ft | 373 kts | 303° |
| 2026-05-05 04:35 | 32.97826 | -117.59628 | 20395 ft | 377 kts | 302° |
| 2026-05-05 04:36 | 32.99428 | -117.62129 | 21287 ft | 381 kts | 302° |
| 2026-05-05 04:36 | 33.01037 | -117.64642 | 22165 ft | 385 kts | 301° |
| 2026-05-05 04:36 | 33.02680 | -117.67208 | 23028 ft | 389 kts | 300° |
| 2026-05-05 04:36 | 33.04314 | -117.69764 | 23810 ft | 393 kts | 300° |
| 2026-05-05 04:37 | 33.06010 | -117.72381 | 24532 ft | 400 kts | 302° |
| 2026-05-05 04:37 | 33.08036 | -117.74715 | 25149 ft | 415 kts | 310° |
| 2026-05-05 04:37 | 33.10245 | -117.76945 | 25729 ft | 422 kts | 309° |
| 2026-05-05 04:37 | 33.12481 | -117.79212 | 26362 ft | 425 kts | 309° |
| 2026-05-05 04:38 | 33.14754 | -117.81523 | 26875 ft | 430 kts | 308° |
| 2026-05-05 04:38 | 33.17056 | -117.83864 | 27435 ft | 434 kts | 307° |
| 2026-05-05 04:38 | 33.19323 | -117.86205 | 27882 ft | 437 kts | 306° |
| 2026-05-05 04:38 | 33.21507 | -117.88713 | 28347 ft | 436 kts | 302° |
| 2026-05-05 04:39 | 33.23655 | -117.91281 | 28748 ft | 441 kts | 302° |
| 2026-05-05 04:39 | 33.25825 | -117.93869 | 29290 ft | 442 kts | 301° |
| 2026-05-05 04:39 | 33.28002 | -117.96467 | 29704 ft | 445 kts | 301° |
| 2026-05-05 04:39 | 33.30195 | -117.99084 | 30205 ft | 445 kts | 301° |
| 2026-05-05 04:40 | 33.32394 | -118.01714 | 30600 ft | 448 kts | 301° |
| 2026-05-05 04:40 | 33.34623 | -118.04382 | 30874 ft | 452 kts | 301° |
| 2026-05-05 04:40 | 33.36839 | -118.07033 | 31298 ft | 452 kts | 301° |
| 2026-05-05 04:40 | 33.39056 | -118.09684 | 31754 ft | 451 kts | 301° |
| 2026-05-05 04:41 | 33.41241 | -118.12296 | 32275 ft | 446 kts | 301° |
| 2026-05-05 04:41 | 33.43442 | -118.14931 | 32734 ft | 444 kts | 301° |
| 2026-05-05 04:41 | 33.45622 | -118.17545 | 33169 ft | 442 kts | 301° |
| 2026-05-05 04:41 | 33.47776 | -118.20130 | 33636 ft | 440 kts | 301° |
| 2026-05-05 04:42 | 33.49968 | -118.22767 | 33946 ft | 442 kts | 302° |
| 2026-05-05 04:42 | 33.52124 | -118.25361 | 34364 ft | 442 kts | 302° |
| 2026-05-05 04:42 | 33.54303 | -118.27986 | 34683 ft | 443 kts | 302° |
| 2026-05-05 04:42 | 33.56477 | -118.30607 | 34985 ft | 444 kts | 302° |
| 2026-05-05 04:43 | 33.58645 | -118.33220 | 35406 ft | 443 kts | 302° |
| 2026-05-05 04:43 | 33.60837 | -118.35864 | 35774 ft | 442 kts | 302° |
| 2026-05-05 04:43 | 33.62987 | -118.38459 | 36139 ft | 441 kts | 303° |
| 2026-05-05 04:43 | 33.65155 | -118.41080 | 36404 ft | 442 kts | 303° |
| 2026-05-05 04:44 | 33.67347 | -118.43734 | 36665 ft | 444 kts | 303° |
| 2026-05-05 04:44 | 33.69502 | -118.46343 | 36983 ft | 443 kts | 303° |
| 2026-05-05 04:44 | 33.71687 | -118.48987 | 37346 ft | 442 kts | 303° |
| 2026-05-05 04:44 | 33.73843 | -118.51598 | 37663 ft | 440 kts | 303° |
| 2026-05-05 04:45 | 33.76004 | -118.54222 | 37841 ft | 443 kts | 304° |
| 2026-05-05 04:45 | 33.78164 | -118.56847 | 38070 ft | 443 kts | 304° |
| 2026-05-05 04:45 | 33.80343 | -118.59493 | 38373 ft | 442 kts | 304° |
| 2026-05-05 04:45 | 33.82496 | -118.62109 | 38601 ft | 442 kts | 304° |
| 2026-05-05 04:46 | 33.84666 | -118.64751 | 38782 ft | 443 kts | 304° |
| 2026-05-05 04:46 | 33.86835 | -118.67392 | 39024 ft | 442 kts | 304° |
| 2026-05-05 04:46 | 33.88979 | -118.70006 | 39229 ft | 443 kts | 304° |
| 2026-05-05 04:46 | 33.91128 | -118.72626 | 39466 ft | 443 kts | 304° |
| 2026-05-05 04:47 | 33.93299 | -118.75275 | 39701 ft | 442 kts | 305° |
| 2026-05-05 04:47 | 33.95466 | -118.77921 | 39883 ft | 442 kts | 305° |
| 2026-05-05 04:47 | 33.97623 | -118.80560 | 40034 ft | 443 kts | 305° |
| 2026-05-05 04:48 | 34.01968 | -118.85884 | 40013 ft | 451 kts | 306° |
| 2026-05-05 04:48 | 34.06396 | -118.91316 | 40013 ft | 457 kts | 306° |
| 2026-05-05 04:49 | 34.10880 | -118.96822 | 40022 ft | 462 kts | 306° |
| 2026-05-05 04:49 | 34.15427 | -119.02385 | 40025 ft | 467 kts | 307° |
| 2026-05-05 04:50 | 34.20053 | -119.07887 | 40023 ft | 470 kts | 307° |
| 2026-05-05 04:50 | 34.24717 | -119.13444 | 40020 ft | 470 kts | 308° |
| 2026-05-05 04:51 | 34.29372 | -119.18998 | 40019 ft | 470 kts | 308° |
| 2026-05-05 04:51 | 34.34012 | -119.24545 | 40020 ft | 470 kts | 308° |
| 2026-05-05 04:52 | 34.38655 | -119.30105 | 40019 ft | 470 kts | 308° |
| 2026-05-05 04:52 | 34.43320 | -119.35703 | 40019 ft | 470 kts | 308° |
| 2026-05-05 04:53 | 34.47972 | -119.41294 | 40001 ft | 470 kts | 308° |
| 2026-05-05 04:53 | 34.52597 | -119.46863 | 39991 ft | 471 kts | 309° |
| 2026-05-05 04:54 | 34.57220 | -119.52439 | 39998 ft | 471 kts | 309° |
| 2026-05-05 04:54 | 34.61897 | -119.58089 | 39995 ft | 471 kts | 309° |
| 2026-05-05 04:55 | 34.66526 | -119.63692 | 39992 ft | 471 kts | 309° |
| 2026-05-05 04:55 | 34.71178 | -119.69331 | 39998 ft | 472 kts | 309° |
| 2026-05-05 04:56 | 34.75827 | -119.74977 | 39992 ft | 472 kts | 309° |
| 2026-05-05 04:56 | 34.80452 | -119.80603 | 39998 ft | 471 kts | 309° |
| 2026-05-05 04:57 | 34.85093 | -119.86257 | 39997 ft | 472 kts | 309° |
| 2026-05-05 04:57 | 34.89740 | -119.91930 | 39992 ft | 472 kts | 309° |
| 2026-05-05 04:58 | 34.94372 | -119.97593 | 39988 ft | 472 kts | 310° |
| 2026-05-05 04:58 | 34.99010 | -120.03273 | 39987 ft | 472 kts | 310° |
| 2026-05-05 04:59 | 35.03632 | -120.08944 | 39993 ft | 472 kts | 310° |
| 2026-05-05 04:59 | 35.08255 | -120.14624 | 40005 ft | 472 kts | 310° |
| 2026-05-05 05:00 | 35.12888 | -120.20328 | 40003 ft | 473 kts | 310° |
| 2026-05-05 05:00 | 35.17601 | -120.25984 | 39944 ft | 476 kts | 315° |
| 2026-05-05 05:00 | 35.20227 | -120.28467 | 39656 ft | 473 kts | 319° |
| 2026-05-05 05:01 | 35.22832 | -120.30830 | 39358 ft | 465 kts | 319° |
| 2026-05-05 05:01 | 35.25420 | -120.33189 | 39057 ft | 462 kts | 319° |
| 2026-05-05 05:01 | 35.27973 | -120.35519 | 38767 ft | 459 kts | 319° |
| 2026-05-05 05:01 | 35.30537 | -120.37864 | 38477 ft | 459 kts | 319° |
| 2026-05-05 05:02 | 35.33099 | -120.40209 | 38180 ft | 458 kts | 319° |
| 2026-05-05 05:02 | 35.35663 | -120.42559 | 37886 ft | 459 kts | 319° |
| 2026-05-05 05:02 | 35.38201 | -120.44888 | 37611 ft | 460 kts | 319° |
| 2026-05-05 05:02 | 35.40752 | -120.47231 | 37327 ft | 460 kts | 319° |
| 2026-05-05 05:03 | 35.43332 | -120.49601 | 37026 ft | 460 kts | 319° |
| 2026-05-05 05:03 | 35.45874 | -120.51939 | 36725 ft | 459 kts | 320° |
| 2026-05-05 05:03 | 35.48429 | -120.54291 | 36423 ft | 458 kts | 320° |
| 2026-05-05 05:03 | 35.50977 | -120.56640 | 36137 ft | 457 kts | 320° |
| 2026-05-05 05:04 | 35.53550 | -120.58930 | 36015 ft | 454 kts | 323° |
| 2026-05-05 05:04 | 35.58867 | -120.63093 | 36021 ft | 453 kts | 325° |
| 2026-05-05 05:05 | 35.64177 | -120.67245 | 36014 ft | 454 kts | 324° |
| 2026-05-05 05:05 | 35.69541 | -120.71450 | 36019 ft | 454 kts | 325° |
| 2026-05-05 05:06 | 35.74867 | -120.75634 | 35812 ft | 457 kts | 326° |
| 2026-05-05 05:06 | 35.77547 | -120.77743 | 35304 ft | 458 kts | 326° |
| 2026-05-05 05:06 | 35.80210 | -120.79840 | 34730 ft | 455 kts | 327° |
| 2026-05-05 05:06 | 35.82854 | -120.81924 | 34093 ft | 453 kts | 327° |
| 2026-05-05 05:07 | 35.85499 | -120.84011 | 33511 ft | 449 kts | 328° |
| 2026-05-05 05:07 | 35.88112 | -120.86074 | 32935 ft | 450 kts | 328° |
| 2026-05-05 05:07 | 35.90742 | -120.88154 | 32313 ft | 451 kts | 329° |
| 2026-05-05 05:07 | 35.93418 | -120.90270 | 31683 ft | 450 kts | 330° |
| 2026-05-05 05:08 | 35.96029 | -120.92339 | 31123 ft | 447 kts | 330° |
| 2026-05-05 05:08 | 35.98634 | -120.94405 | 30476 ft | 444 kts | 331° |
| 2026-05-05 05:08 | 36.01204 | -120.96519 | 29897 ft | 439 kts | 328° |
| 2026-05-05 05:08 | 36.03616 | -120.98781 | 29347 ft | 433 kts | 327° |
| 2026-05-05 05:09 | 36.05968 | -121.01021 | 28773 ft | 427 kts | 327° |
| 2026-05-05 05:09 | 36.08308 | -121.03248 | 28215 ft | 421 kts | 327° |
| 2026-05-05 05:09 | 36.10631 | -121.05460 | 27653 ft | 415 kts | 327° |
| 2026-05-05 05:09 | 36.12888 | -121.07610 | 27116 ft | 411 kts | 327° |
| 2026-05-05 05:10 | 36.15152 | -121.09769 | 26570 ft | 411 kts | 327° |
| 2026-05-05 05:10 | 36.17418 | -121.11929 | 26028 ft | 410 kts | 327° |
| 2026-05-05 05:10 | 36.19679 | -121.14086 | 25478 ft | 408 kts | 327° |
| 2026-05-05 05:10 | 36.21920 | -121.16225 | 24939 ft | 404 kts | 327° |
| 2026-05-05 05:11 | 36.24162 | -121.18368 | 24393 ft | 401 kts | 327° |
| 2026-05-05 05:11 | 36.26348 | -121.20458 | 23866 ft | 399 kts | 327° |
| 2026-05-05 05:11 | 36.28533 | -121.22549 | 23349 ft | 396 kts | 326° |
| 2026-05-05 05:11 | 36.30712 | -121.24635 | 22817 ft | 392 kts | 326° |
| 2026-05-05 05:12 | 36.32861 | -121.26695 | 22296 ft | 388 kts | 326° |
| 2026-05-05 05:12 | 36.34992 | -121.28738 | 21785 ft | 385 kts | 326° |
| 2026-05-05 05:12 | 36.37095 | -121.30760 | 21284 ft | 381 kts | 326° |
| 2026-05-05 05:12 | 36.39169 | -121.32758 | 20771 ft | 377 kts | 326° |
| 2026-05-05 05:13 | 36.41223 | -121.34738 | 20283 ft | 373 kts | 325° |
| 2026-05-05 05:13 | 36.43281 | -121.36723 | 19789 ft | 370 kts | 324° |
| 2026-05-05 05:13 | 36.45291 | -121.38663 | 19302 ft | 366 kts | 325° |
| 2026-05-05 05:13 | 36.47282 | -121.40585 | 18821 ft | 363 kts | 324° |
| 2026-05-05 05:14 | 36.49281 | -121.42478 | 18344 ft | 358 kts | 328° |
| 2026-05-05 05:14 | 36.51527 | -121.43806 | 17883 ft | 351 kts | 342° |
| 2026-05-05 05:14 | 36.53840 | -121.44770 | 17323 ft | 349 kts | 343° |
| 2026-05-05 05:14 | 36.56126 | -121.45731 | 16911 ft | 346 kts | 343° |
| 2026-05-05 05:15 | 36.58387 | -121.46683 | 16454 ft | 345 kts | 343° |
| 2026-05-05 05:15 | 36.60667 | -121.47643 | 15998 ft | 342 kts | 343° |
| 2026-05-05 05:15 | 36.62931 | -121.48598 | 15543 ft | 340 kts | 343° |
| 2026-05-05 05:15 | 36.65172 | -121.49544 | 15088 ft | 338 kts | 343° |
| 2026-05-05 05:16 | 36.67407 | -121.50487 | 14639 ft | 336 kts | 343° |
| 2026-05-05 05:16 | 36.69622 | -121.51424 | 14196 ft | 335 kts | 343° |
| 2026-05-05 05:16 | 36.71806 | -121.52348 | 13753 ft | 333 kts | 343° |
| 2026-05-05 05:16 | 36.74005 | -121.53279 | 13309 ft | 329 kts | 343° |
| 2026-05-05 05:17 | 36.76173 | -121.54198 | 12876 ft | 325 kts | 343° |
| 2026-05-05 05:17 | 36.78292 | -121.55099 | 12448 ft | 319 kts | 343° |
| 2026-05-05 05:17 | 36.80362 | -121.55978 | 12037 ft | 313 kts | 343° |
| 2026-05-05 05:17 | 36.82407 | -121.56847 | 11619 ft | 307 kts | 343° |
| 2026-05-05 05:18 | 36.84414 | -121.57702 | 11218 ft | 302 kts | 343° |
| 2026-05-05 05:18 | 36.86400 | -121.58546 | 10812 ft | 297 kts | 343° |
| 2026-05-05 05:18 | 36.88354 | -121.59379 | 10415 ft | 292 kts | 343° |
| 2026-05-05 05:18 | 36.90246 | -121.60184 | 10030 ft | 287 kts | 343° |
| 2026-05-05 05:19 | 36.92142 | -121.60993 | 9657 ft | 282 kts | 343° |
| 2026-05-05 05:19 | 36.93974 | -121.61771 | 9287 ft | 278 kts | 343° |
| 2026-05-05 05:19 | 36.95822 | -121.62554 | 8914 ft | 278 kts | 343° |
| 2026-05-05 05:19 | 36.97651 | -121.63329 | 8540 ft | 279 kts | 342° |
| 2026-05-05 05:20 | 36.99478 | -121.64105 | 8166 ft | 278 kts | 343° |
| 2026-05-05 05:20 | 37.01315 | -121.64884 | 7812 ft | 278 kts | 343° |
| 2026-05-05 05:20 | 37.03144 | -121.65661 | 7424 ft | 277 kts | 342° |
| 2026-05-05 05:20 | 37.04984 | -121.66443 | 7061 ft | 275 kts | 342° |
| 2026-05-05 05:21 | 37.06779 | -121.67207 | 6704 ft | 273 kts | 341° |
| 2026-05-05 05:21 | 37.08583 | -121.67974 | 6359 ft | 270 kts | 341° |
| 2026-05-05 05:21 | 37.10348 | -121.68726 | 5969 ft | 267 kts | 341° |
| 2026-05-05 05:21 | 37.12097 | -121.69471 | 5635 ft | 261 kts | 341° |
| 2026-05-05 05:22 | 37.13808 | -121.70200 | 5299 ft | 256 kts | 341° |
| 2026-05-05 05:22 | 37.15490 | -121.70918 | 4955 ft | 252 kts | 341° |
| 2026-05-05 05:22 | 37.17030 | -121.71938 | 4620 ft | 247 kts | 320° |
| 2026-05-05 05:22 | 37.18299 | -121.73340 | 4275 ft | 244 kts | 317° |
| 2026-05-05 05:23 | 37.19580 | -121.74751 | 3928 ft | 241 kts | 318° |
| 2026-05-05 05:23 | 37.20825 | -121.76115 | 3589 ft | 239 kts | 318° |
| 2026-05-05 05:23 | 37.22078 | -121.77481 | 3258 ft | 237 kts | 318° |
| 2026-05-05 05:23 | 37.23321 | -121.78838 | 3145 ft | 235 kts | 319° |
| 2026-05-05 05:24 | 37.24580 | -121.80211 | 2865 ft | 240 kts | 319° |
| 2026-05-05 05:24 | 37.25832 | -121.81578 | 2584 ft | 237 kts | 319° |
| 2026-05-05 05:24 | 37.27072 | -121.82931 | 2274 ft | 233 kts | 318° |
| 2026-05-05 05:24 | 37.28287 | -121.84257 | 1977 ft | 227 kts | 318° |
| 2026-05-05 05:25 | 37.29412 | -121.85485 | 1664 ft | 197 kts | 318° |
| 2026-05-05 05:25 | 37.30352 | -121.86513 | 1474 ft | 163 kts | 318° |
| 2026-05-05 05:25 | 37.31130 | -121.87363 | 1280 ft | 136 kts | 318° |
| 2026-05-05 05:25 | 37.31824 | -121.88122 | 1070 ft | 129 kts | 318° |
| 2026-05-05 05:26 | 37.32487 | -121.88849 | 899 ft | 124 kts | 318° |
| 2026-05-05 05:26 | 37.33133 | -121.89556 | 741 ft | 123 kts | 318° |
| 2026-05-05 05:26 | 37.33781 | -121.90267 | 578 ft | 122 kts | 318° |
| 2026-05-05 05:26 | 37.34410 | -121.90971 | 418 ft | 121 kts | 318° |
| 2026-05-05 05:27 | 37.35054 | -121.91671 | 240 ft | 121 kts | 319° |
| 2026-05-05 05:27 | 37.35689 | -121.92355 | 87 ft | 118 kts | 319° |
| 2026-05-05 05:27 | 37.36534 | -121.93284 | 49 ft | 47 kts | 323° |
| 2026-05-05 05:28 | 37.36684 | -121.93489 | 48 ft | 19 kts | 263° |
| 2026-05-05 05:28 | 37.36649 | -121.93562 | 48 ft | 0 kts | 229° |
| 2026-05-05 05:28 | 37.36648 | -121.93564 | 48 ft | 1 kts | 229° |
| 2026-05-05 05:29 | 37.36632 | -121.93587 | 48 ft | 5 kts | 229° |
| 2026-05-05 05:29 | 37.36622 | -121.93600 | 48 ft | 3 kts | 203° |
| 2026-05-05 05:29 | 37.36589 | -121.93524 | 48 ft | 13 kts | 128° |
| 2026-05-05 05:29 | 37.36509 | -121.93436 | 48 ft | 17 kts | 140° |
| 2026-05-05 05:30 | 37.36409 | -121.93323 | 50 ft | 20 kts | 139° |
| 2026-05-05 05:30 | 37.36293 | -121.93200 | 52 ft | 23 kts | 139° |
| 2026-05-05 05:30 | 37.36166 | -121.93061 | 55 ft | 25 kts | 138° |
| 2026-05-05 05:30 | 37.36024 | -121.92903 | 55 ft | 28 kts | 139° |
| 2026-05-05 05:31 | 37.35867 | -121.92731 | 57 ft | 30 kts | 138° |
| 2026-05-05 05:31 | 37.35751 | -121.92602 | 60 ft | 18 kts | 139° |
| 2026-05-05 05:31 | 37.35667 | -121.92600 | 61 ft | 15 kts | 229° |
| 2026-05-05 05:31 | 37.35621 | -121.92667 | 61 ft | 2 kts | 230° |
| 2026-05-05 05:32 | 37.35619 | -121.92671 | 61 ft | 4 kts | 233° |
| 2026-05-05 05:32 | 37.35669 | -121.92751 | 61 ft | 22 kts | 320° |
| 2026-05-05 05:32 | 37.35715 | -121.92846 | 60 ft | 9 kts | 274° |
| 2026-05-05 05:33 | 37.35736 | -121.92883 | 60 ft | 0 kts | 321° |